createdAt,value
2017-05-19T00:00:40.547Z,17.54
2017-05-19T00:01:41.124Z,17.54
2017-05-19T00:02:41.702Z,17.49
2017-05-19T00:03:42.279Z,17.59
2017-05-19T00:04:42.855Z,17.60
2017-05-19T00:05:43.432Z,17.60
2017-05-19T00:06:44.008Z,17.56
2017-05-19T00:07:44.585Z,17.36
2017-05-19T00:08:45.162Z,17.42
2017-05-19T00:09:45.739Z,17.46
2017-05-19T00:10:46.317Z,17.46
2017-05-19T00:11:46.895Z,17.31
2017-05-19T00:12:47.475Z,17.30
2017-05-19T00:13:48.052Z,17.27
2017-05-19T00:14:48.627Z,17.36
2017-05-19T00:15:49.207Z,17.39
2017-05-19T00:16:49.783Z,17.49
2017-05-19T00:17:50.376Z,17.57
2017-05-19T00:18:50.951Z,17.56
2017-05-19T00:19:51.526Z,17.52
2017-05-19T00:20:52.106Z,17.57
2017-05-19T00:21:52.684Z,17.60
2017-05-19T00:22:53.273Z,17.59
2017-05-19T00:23:53.852Z,17.54
2017-05-19T00:24:54.429Z,17.52
2017-05-19T00:25:55.006Z,17.57
2017-05-19T00:26:55.584Z,17.42
2017-05-19T00:27:56.160Z,17.38
2017-05-19T00:28:56.737Z,17.52
2017-05-19T00:29:57.314Z,17.42
2017-05-19T00:30:57.902Z,17.39
2017-05-19T00:31:58.485Z,17.49
2017-05-19T00:32:59.057Z,17.51
2017-05-19T00:33:59.633Z,17.49
2017-05-19T00:35:00.212Z,17.48
2017-05-19T00:36:00.788Z,17.54
2017-05-19T00:37:01.365Z,17.54
2017-05-19T00:38:01.942Z,17.52
2017-05-19T00:39:02.518Z,17.59
2017-05-19T00:40:03.096Z,17.60
2017-05-19T00:41:03.672Z,17.57
2017-05-19T00:42:04.252Z,17.67
2017-05-19T00:43:04.843Z,17.60
2017-05-19T00:44:05.434Z,17.70
2017-05-19T00:45:06.012Z,17.63
2017-05-19T00:46:06.587Z,17.49
2017-05-19T00:47:07.164Z,17.48
2017-05-19T00:48:07.740Z,17.54
2017-05-19T00:49:08.316Z,17.41
2017-05-19T00:50:08.892Z,17.42
2017-05-19T00:51:09.469Z,17.39
2017-05-19T00:52:10.046Z,17.41
2017-05-19T00:53:10.630Z,17.49
2017-05-19T00:54:11.199Z,17.57
2017-05-19T00:55:11.779Z,17.64
2017-05-19T00:56:12.368Z,17.57
2017-05-19T00:57:12.944Z,17.65
2017-05-19T00:58:13.521Z,17.68
2017-05-19T00:59:14.098Z,17.59
2017-05-19T01:00:14.674Z,17.74
2017-05-19T01:01:15.251Z,17.64
2017-05-19T01:02:15.827Z,17.68
2017-05-19T01:03:16.401Z,17.68
2017-05-19T01:04:16.991Z,17.64
2017-05-19T01:05:17.569Z,17.52
2017-05-19T01:06:18.145Z,17.59
2017-05-19T01:07:18.722Z,17.63
2017-05-19T01:08:19.300Z,17.51
2017-05-19T01:09:19.875Z,17.45
2017-05-19T01:10:20.451Z,17.49
2017-05-19T01:11:21.031Z,17.45
2017-05-19T01:12:21.603Z,17.57
2017-05-19T01:13:22.180Z,17.54
2017-05-19T01:14:22.757Z,17.60
2017-05-19T01:15:23.346Z,17.57
2017-05-19T01:16:23.924Z,17.56
2017-05-19T01:17:24.501Z,17.54
2017-05-19T01:18:25.091Z,17.67
2017-05-19T01:19:25.680Z,17.48
2017-05-19T01:20:26.256Z,17.56
2017-05-19T01:21:26.834Z,17.48
2017-05-19T01:22:27.411Z,17.56
2017-05-19T01:23:27.990Z,17.57
2017-05-19T01:24:28.568Z,17.65
2017-05-19T01:25:29.145Z,17.65
2017-05-19T01:26:29.726Z,17.67
2017-05-19T01:27:30.301Z,17.54
2017-05-19T01:28:30.892Z,17.51
2017-05-19T01:29:31.471Z,17.49
2017-05-19T01:30:32.047Z,17.48
2017-05-19T01:31:32.624Z,17.46
2017-05-19T01:32:33.200Z,17.54
2017-05-19T01:33:33.777Z,17.60
2017-05-19T01:34:34.356Z,17.49
2017-05-19T01:35:34.932Z,17.44
2017-05-19T01:36:35.510Z,17.63
2017-05-19T01:37:36.086Z,17.60
2017-05-19T01:38:36.665Z,17.56
2017-05-19T01:39:37.246Z,17.67
2017-05-19T01:40:37.824Z,17.67
2017-05-19T01:41:38.401Z,17.64
2017-05-19T01:42:38.992Z,17.63
2017-05-19T01:43:39.581Z,17.72
2017-05-19T01:44:40.170Z,17.67
2017-05-19T01:45:40.750Z,17.60
2017-05-19T01:46:41.332Z,17.76
2017-05-19T01:47:41.904Z,17.59
2017-05-19T01:48:42.481Z,17.56
2017-05-19T01:49:43.058Z,17.65
2017-05-19T01:50:43.636Z,17.60
2017-05-19T01:51:44.213Z,17.60
2017-05-19T01:52:44.792Z,17.65
2017-05-19T01:53:45.384Z,17.67
2017-05-19T01:54:45.961Z,17.64
2017-05-19T01:55:46.553Z,17.56
2017-05-19T01:56:47.134Z,17.60
2017-05-19T01:57:47.710Z,17.42
2017-05-19T01:58:48.287Z,17.45
2017-05-19T01:59:48.866Z,17.41
2017-05-19T02:00:49.444Z,17.44
2017-05-19T02:01:50.023Z,17.31
2017-05-19T02:02:50.600Z,17.38
2017-05-19T02:03:51.179Z,17.41
2017-05-19T02:04:51.756Z,17.41
2017-05-19T02:05:52.335Z,17.44
2017-05-19T02:06:52.912Z,17.36
2017-05-19T02:07:53.489Z,17.34
2017-05-19T02:08:54.067Z,17.41
2017-05-19T02:09:54.646Z,17.36
2017-05-19T02:10:55.224Z,17.27
2017-05-19T02:11:55.835Z,17.33
2017-05-19T02:12:56.399Z,17.27
2017-05-19T02:13:56.974Z,17.16
2017-05-19T02:14:57.552Z,17.26
2017-05-19T02:15:58.133Z,17.19
2017-05-19T02:16:58.711Z,17.15
2017-05-19T02:17:59.287Z,17.14
2017-05-19T02:18:59.864Z,17.15
2017-05-19T02:20:00.442Z,17.16
2017-05-19T02:21:01.019Z,17.06
2017-05-19T02:22:01.597Z,17.19
2017-05-19T02:23:02.187Z,17.16
2017-05-19T02:24:02.769Z,17.19
2017-05-19T02:25:03.345Z,17.19
2017-05-19T02:26:03.925Z,17.06
2017-05-19T02:27:04.506Z,17.06
2017-05-19T02:28:05.082Z,17.05
2017-05-19T02:29:05.659Z,16.99
2017-05-19T02:30:06.238Z,17.09
2017-05-19T02:31:06.814Z,16.94
2017-05-19T02:32:07.392Z,16.94
2017-05-19T02:33:07.969Z,16.96
2017-05-19T02:34:08.546Z,16.91
2017-05-19T02:35:09.126Z,16.90
2017-05-19T02:36:09.704Z,16.91
2017-05-19T02:37:10.282Z,17.05
2017-05-19T02:38:10.859Z,17.04
2017-05-19T02:39:11.437Z,16.99
2017-05-19T02:40:12.014Z,16.91
2017-05-19T02:41:12.593Z,16.94
2017-05-19T02:42:13.169Z,16.94
2017-05-19T02:43:13.748Z,16.94
2017-05-19T02:44:14.329Z,17.08
2017-05-19T02:45:14.905Z,16.97
2017-05-19T02:46:15.488Z,17.01
2017-05-19T02:47:16.063Z,17.05
2017-05-19T02:48:16.641Z,17.12
2017-05-19T02:49:17.218Z,17.02
2017-05-19T02:50:17.794Z,16.91
2017-05-19T02:51:18.372Z,17.06
2017-05-19T02:52:18.964Z,16.91
2017-05-19T02:53:19.542Z,17.02
2017-05-19T02:54:20.117Z,16.96
2017-05-19T02:55:20.694Z,16.97
2017-05-19T02:56:21.272Z,17.06
2017-05-19T02:57:21.848Z,17.01
2017-05-19T02:58:22.428Z,17.06
2017-05-19T02:59:23.006Z,16.93
2017-05-19T03:00:23.585Z,17.05
2017-05-19T03:01:24.161Z,16.96
2017-05-19T03:02:24.739Z,16.91
2017-05-19T03:03:25.316Z,16.93
2017-05-19T03:04:25.894Z,17.06
2017-05-19T03:05:26.470Z,17.01
2017-05-19T03:06:27.047Z,17.05
2017-05-19T03:07:27.624Z,17.05
2017-05-19T03:08:28.199Z,16.93
2017-05-19T03:09:28.779Z,16.86
2017-05-19T03:10:29.355Z,16.90
2017-05-19T03:11:29.947Z,16.79
2017-05-19T03:12:30.524Z,16.84
2017-05-19T03:13:31.099Z,16.87
2017-05-19T03:14:31.680Z,16.90
2017-05-19T03:15:32.257Z,17.02
2017-05-19T03:16:32.836Z,16.96
2017-05-19T03:17:33.412Z,17.04
2017-05-19T03:18:33.990Z,17.02
2017-05-19T03:19:34.567Z,17.01
2017-05-19T03:20:35.144Z,16.91
2017-05-19T03:21:35.722Z,16.94
2017-05-19T03:22:36.298Z,16.91
2017-05-19T03:23:36.876Z,16.93
2017-05-19T03:24:37.452Z,16.96
2017-05-19T03:25:38.035Z,16.94
2017-05-19T03:26:38.626Z,16.89
2017-05-19T03:27:39.204Z,16.90
2017-05-19T03:28:39.784Z,16.83
2017-05-19T03:29:40.361Z,16.86
2017-05-19T03:30:40.941Z,16.78
2017-05-19T03:31:41.518Z,16.76
2017-05-19T03:32:42.109Z,16.81
2017-05-19T03:33:42.700Z,16.72
2017-05-19T03:34:43.280Z,16.76
2017-05-19T03:35:43.858Z,16.79
2017-05-19T03:36:44.438Z,16.78
2017-05-19T03:37:45.019Z,16.75
2017-05-19T03:38:45.593Z,16.84
2017-05-19T03:39:46.172Z,16.76
2017-05-19T03:40:46.751Z,16.86
2017-05-19T03:41:47.331Z,16.79
2017-05-19T03:42:47.909Z,16.81
2017-05-19T03:43:48.490Z,16.74
2017-05-19T03:44:49.068Z,16.86
2017-05-19T03:45:49.646Z,16.79
2017-05-19T03:46:50.225Z,16.68
2017-05-19T03:47:50.805Z,16.69
2017-05-19T03:48:51.387Z,16.61
2017-05-19T03:49:51.964Z,16.69
2017-05-19T03:50:52.543Z,16.68
2017-05-19T03:51:53.122Z,16.66
2017-05-19T03:52:53.702Z,16.57
2017-05-19T03:53:54.283Z,16.57
2017-05-19T03:54:54.862Z,16.65
2017-05-19T03:55:55.442Z,16.65
2017-05-19T03:56:56.021Z,16.72
2017-05-19T03:57:56.599Z,16.69
2017-05-19T03:58:57.177Z,16.71
2017-05-19T03:59:57.762Z,16.71
2017-05-19T04:00:58.336Z,16.57
2017-05-19T04:01:58.914Z,16.65
2017-05-19T04:02:59.496Z,16.76
2017-05-19T04:04:00.075Z,16.72
2017-05-19T04:05:00.654Z,16.83
2017-05-19T04:06:01.234Z,16.78
2017-05-19T04:07:01.813Z,16.74
2017-05-19T04:08:02.395Z,16.69
2017-05-19T04:09:02.973Z,16.78
2017-05-19T04:10:03.551Z,16.84
2017-05-19T04:11:04.130Z,16.78
2017-05-19T04:12:04.710Z,16.76
2017-05-19T04:13:05.292Z,16.75
2017-05-19T04:14:05.870Z,16.71
2017-05-19T04:15:06.447Z,16.86
2017-05-19T04:16:07.024Z,16.90
2017-05-19T04:17:07.603Z,16.81
2017-05-19T04:18:08.183Z,16.81
2017-05-19T04:19:08.767Z,16.78
2017-05-19T04:20:09.357Z,16.79
2017-05-19T04:21:09.937Z,16.84
2017-05-19T04:22:10.517Z,16.78
2017-05-19T04:23:11.097Z,16.79
2017-05-19T04:24:11.676Z,16.81
2017-05-19T04:25:12.256Z,16.93
2017-05-19T04:26:12.837Z,16.90
2017-05-19T04:27:13.416Z,16.89
2017-05-19T04:28:13.996Z,16.96
2017-05-19T04:29:14.576Z,16.96
2017-05-19T04:30:15.171Z,16.99
2017-05-19T04:31:15.750Z,17.01
2017-05-19T04:32:16.332Z,17.01
2017-05-19T04:33:16.912Z,17.14
2017-05-19T04:34:17.496Z,17.04
2017-05-19T04:35:18.076Z,17.16
2017-05-19T04:36:18.657Z,17.06
2017-05-19T04:37:19.240Z,17.12
2017-05-19T04:38:19.819Z,17.12
2017-05-19T04:39:20.400Z,17.06
2017-05-19T04:40:20.979Z,17.11
2017-05-19T04:41:21.561Z,17.20
2017-05-19T04:42:22.158Z,17.15
2017-05-19T04:43:22.740Z,17.27
2017-05-19T04:44:23.321Z,17.23
2017-05-19T04:45:23.904Z,17.29
2017-05-19T04:46:24.485Z,17.31
2017-05-19T04:47:25.066Z,17.27
2017-05-19T04:48:25.649Z,17.26
2017-05-19T04:49:26.229Z,17.26
2017-05-19T04:50:26.813Z,17.30
2017-05-19T04:51:27.395Z,17.22
2017-05-19T04:52:27.976Z,17.31
2017-05-19T04:53:28.558Z,17.31
2017-05-19T04:54:29.140Z,17.36
2017-05-19T04:55:29.722Z,17.29
2017-05-19T04:56:30.305Z,17.33
2017-05-19T04:57:30.885Z,17.31
2017-05-19T04:58:31.465Z,17.31
2017-05-19T04:59:32.048Z,17.29
2017-05-19T05:00:32.628Z,17.34
2017-05-19T05:01:33.222Z,17.34
2017-05-19T05:02:33.805Z,17.48
2017-05-19T05:03:34.386Z,17.45
2017-05-19T05:04:34.965Z,17.49
2017-05-19T05:05:35.549Z,17.60
2017-05-19T05:06:36.128Z,17.67
2017-05-19T05:07:36.711Z,17.57
2017-05-19T05:08:37.292Z,17.49
2017-05-19T05:09:37.873Z,17.57
2017-05-19T05:10:38.457Z,17.51
2017-05-19T05:11:39.037Z,17.45
2017-05-19T05:12:39.621Z,17.48
2017-05-19T05:13:40.213Z,17.45
2017-05-19T05:14:40.793Z,17.39
2017-05-19T05:15:41.373Z,17.39
2017-05-19T05:16:41.955Z,17.42
2017-05-19T05:17:42.537Z,17.39
2017-05-19T05:18:43.120Z,17.39
2017-05-19T05:19:43.714Z,17.42
2017-05-19T05:20:44.281Z,17.30
2017-05-19T05:21:44.864Z,17.44
2017-05-19T05:22:45.446Z,17.34
2017-05-19T05:23:46.024Z,17.36
2017-05-19T05:24:46.604Z,17.36
2017-05-19T05:25:47.185Z,17.27
2017-05-19T05:26:47.767Z,17.29
2017-05-19T05:27:48.348Z,17.36
2017-05-19T05:28:48.932Z,17.27
2017-05-19T05:29:49.528Z,17.41
2017-05-19T05:30:50.091Z,17.34
2017-05-19T05:31:50.677Z,17.34
2017-05-19T05:32:51.255Z,17.31
2017-05-19T05:33:51.837Z,17.36
2017-05-19T05:34:52.418Z,17.33
2017-05-19T05:35:52.998Z,17.33
2017-05-19T05:36:53.582Z,17.27
2017-05-19T05:37:54.164Z,17.29
2017-05-19T05:38:54.794Z,17.23
2017-05-19T05:39:55.377Z,17.33
2017-05-19T05:40:55.957Z,17.36
2017-05-19T05:41:56.539Z,17.34
2017-05-19T05:42:57.132Z,17.41
2017-05-19T05:43:57.712Z,17.39
2017-05-19T05:44:58.293Z,17.48
2017-05-19T05:45:58.873Z,17.63
2017-05-19T05:46:59.455Z,17.54
2017-05-19T05:48:00.036Z,17.39
2017-05-19T05:49:00.618Z,17.46
2017-05-19T05:50:01.197Z,17.46
2017-05-19T05:51:01.777Z,17.39
2017-05-19T05:52:02.363Z,17.54
2017-05-19T05:53:02.942Z,17.60
2017-05-19T05:54:03.523Z,17.54
2017-05-19T05:55:04.103Z,17.57
2017-05-19T05:56:04.685Z,17.49
2017-05-19T05:57:05.268Z,17.52
2017-05-19T05:58:05.852Z,17.51
2017-05-19T05:59:06.434Z,17.51
2017-05-19T06:00:07.017Z,17.52
2017-05-19T06:01:07.603Z,17.56
2017-05-19T06:02:08.185Z,17.34
2017-05-19T06:03:08.772Z,17.42
2017-05-19T06:04:09.350Z,17.46
2017-05-19T06:05:09.946Z,17.42
2017-05-19T06:06:10.528Z,17.52
2017-05-19T06:07:11.110Z,17.49
2017-05-19T06:08:11.690Z,17.48
2017-05-19T06:09:12.273Z,17.60
2017-05-19T06:10:12.856Z,17.46
2017-05-19T06:11:13.437Z,17.48
2017-05-19T06:12:14.020Z,17.48
2017-05-19T06:13:14.604Z,17.52
2017-05-19T06:14:15.201Z,17.64
2017-05-19T06:15:15.783Z,17.49
2017-05-19T06:16:16.367Z,17.67
2017-05-19T06:17:16.948Z,17.65
2017-05-19T06:18:17.531Z,17.68
2017-05-19T06:19:18.115Z,17.67
2017-05-19T06:20:18.697Z,17.57
2017-05-19T06:21:19.280Z,17.59
2017-05-19T06:22:19.865Z,17.67
2017-05-19T06:23:20.449Z,17.72
2017-05-19T06:24:21.026Z,17.64
2017-05-19T06:25:21.610Z,17.74
2017-05-19T06:26:22.190Z,17.67
2017-05-19T06:27:22.774Z,17.68
2017-05-19T06:28:23.355Z,17.68
2017-05-19T06:29:23.956Z,17.64
2017-05-19T06:30:24.532Z,17.70
2017-05-19T06:31:25.115Z,17.72
2017-05-19T06:32:25.697Z,17.68
2017-05-19T06:33:26.280Z,17.68
2017-05-19T06:34:26.863Z,17.76
2017-05-19T06:35:27.445Z,17.79
2017-05-19T06:36:28.028Z,17.67
2017-05-19T06:37:28.610Z,17.71
2017-05-19T06:38:29.193Z,17.72
2017-05-19T06:39:29.777Z,17.86
2017-05-19T06:40:30.358Z,18.07
2017-05-19T06:41:30.941Z,18.00
2017-05-19T06:42:31.524Z,17.79
2017-05-19T06:43:32.106Z,17.92
2017-05-19T06:44:32.689Z,17.92
2017-05-19T06:45:33.269Z,17.85
2017-05-19T06:46:33.852Z,17.89
2017-05-19T06:47:34.435Z,17.78
2017-05-19T06:48:35.016Z,17.80
2017-05-19T06:49:35.597Z,17.80
2017-05-19T06:50:36.201Z,17.70
2017-05-19T06:51:36.764Z,17.71
2017-05-19T06:52:37.348Z,17.85
2017-05-19T06:53:37.932Z,17.86
2017-05-19T06:54:38.511Z,17.80
2017-05-19T06:55:39.095Z,17.94
2017-05-19T06:56:39.675Z,17.90
2017-05-19T06:57:40.257Z,17.83
2017-05-19T06:58:40.853Z,17.80
2017-05-19T06:59:41.435Z,17.67
2017-05-19T07:00:42.017Z,17.60
2017-05-19T07:01:42.599Z,17.56
2017-05-19T07:02:43.178Z,17.57
2017-05-19T07:03:43.759Z,17.01
2017-05-19T07:04:44.340Z,16.72
2017-05-19T07:05:44.921Z,16.72
2017-05-19T07:06:45.502Z,16.46
2017-05-19T07:07:46.133Z,16.50
2017-05-19T07:08:46.678Z,16.38
2017-05-19T07:09:47.262Z,16.32
2017-05-19T07:10:47.840Z,16.29
2017-05-19T07:11:48.428Z,16.15
2017-05-19T07:12:49.020Z,16.35
2017-05-19T07:13:49.602Z,16.17
2017-05-19T07:14:50.183Z,16.15
2017-05-19T07:15:50.762Z,16.20
2017-05-19T07:16:51.347Z,16.21
2017-05-19T07:17:51.928Z,16.10
2017-05-19T07:18:52.509Z,16.04
2017-05-19T07:19:53.092Z,16.12
2017-05-19T07:20:53.674Z,16.13
2017-05-19T07:21:54.256Z,16.10
2017-05-19T07:22:54.895Z,16.20
2017-05-19T07:23:55.419Z,16.20
2017-05-19T07:24:56.001Z,16.23
2017-05-19T07:25:56.582Z,16.09
2017-05-19T07:26:57.163Z,15.97
2017-05-19T07:27:57.743Z,16.01
2017-05-19T07:28:58.325Z,16.09
2017-05-19T07:29:58.909Z,16.05
2017-05-19T07:30:59.490Z,15.86
2017-05-19T07:32:00.077Z,15.77
2017-05-19T07:33:00.654Z,15.91
2017-05-19T07:34:01.234Z,15.77
2017-05-19T07:35:02.015Z,15.90
2017-05-19T07:36:02.596Z,15.91
2017-05-19T07:37:03.180Z,15.80
2017-05-19T07:38:03.757Z,15.67
2017-05-19T07:39:04.339Z,15.68
2017-05-19T07:40:04.921Z,15.64
2017-05-19T07:41:05.507Z,15.67
2017-05-19T07:42:06.083Z,15.75
2017-05-19T07:43:06.667Z,15.62
2017-05-19T07:44:07.247Z,15.72
2017-05-19T07:45:07.828Z,15.70
2017-05-19T07:46:08.409Z,15.72
2017-05-19T07:47:08.990Z,15.70
2017-05-19T07:48:09.572Z,15.67
2017-05-19T07:49:10.167Z,15.88
2017-05-19T07:50:10.752Z,15.72
2017-05-19T07:51:11.328Z,15.70
2017-05-19T07:52:11.912Z,15.72
2017-05-19T07:53:12.509Z,15.61
2017-05-19T07:54:13.089Z,15.54
2017-05-19T07:55:13.671Z,15.59
2017-05-19T07:56:14.250Z,15.55
2017-05-19T07:57:14.832Z,15.62
2017-05-19T07:58:15.414Z,15.52
2017-05-19T07:59:15.994Z,15.55
2017-05-19T08:00:16.576Z,15.55
2017-05-19T08:01:17.158Z,15.65
2017-05-19T08:02:17.738Z,15.51
2017-05-19T08:03:18.320Z,15.58
2017-05-19T08:04:18.902Z,15.39
2017-05-19T08:05:19.482Z,15.46
2017-05-19T08:06:20.063Z,15.55
2017-05-19T08:07:20.644Z,15.39
2017-05-19T08:08:21.222Z,15.42
2017-05-19T08:09:21.805Z,15.49
2017-05-19T08:10:22.386Z,15.58
2017-05-19T08:11:22.967Z,15.61
2017-05-19T08:12:23.550Z,15.57
2017-05-19T08:13:24.131Z,15.47
2017-05-19T08:14:24.713Z,15.31
2017-05-19T08:15:25.295Z,15.29
2017-05-19T08:16:25.877Z,15.39
2017-05-19T08:17:26.458Z,15.39
2017-05-19T08:18:27.038Z,15.36
2017-05-19T08:19:27.618Z,15.22
2017-05-19T08:20:28.200Z,15.40
2017-05-19T08:21:28.780Z,15.55
2017-05-19T08:22:29.360Z,15.52
2017-05-19T08:23:29.942Z,15.61
2017-05-19T08:24:30.522Z,15.62
2017-05-19T08:25:31.103Z,15.58
2017-05-19T08:26:31.684Z,15.59
2017-05-19T08:27:32.269Z,15.55
2017-05-19T08:28:32.849Z,15.55
2017-05-19T08:29:33.429Z,15.55
2017-05-19T08:30:34.011Z,15.55
2017-05-19T08:31:34.594Z,15.55
2017-05-19T08:32:35.174Z,15.52
2017-05-19T08:33:35.755Z,15.42
2017-05-19T08:34:36.337Z,15.52
2017-05-19T08:35:36.917Z,15.42
2017-05-19T08:36:37.498Z,15.36
2017-05-19T08:37:38.091Z,15.29
2017-05-19T08:38:38.671Z,15.37
2017-05-19T08:39:39.251Z,15.46
2017-05-19T08:40:39.840Z,15.42
2017-05-19T08:41:40.415Z,15.40
2017-05-19T08:42:40.996Z,15.52
2017-05-19T08:43:41.577Z,15.52
2017-05-19T08:44:42.158Z,15.39
2017-05-19T08:45:42.739Z,15.29
2017-05-19T08:46:43.321Z,15.27
2017-05-19T08:47:43.901Z,15.21
2017-05-19T08:48:44.487Z,15.27
2017-05-19T08:49:45.066Z,15.28
2017-05-19T08:50:45.648Z,15.28
2017-05-19T08:51:46.229Z,15.40
2017-05-19T08:52:46.809Z,15.31
2017-05-19T08:53:47.390Z,15.37
2017-05-19T08:54:47.972Z,15.27
2017-05-19T08:55:48.552Z,15.31
2017-05-19T08:56:49.134Z,15.29
2017-05-19T08:57:49.712Z,15.14
2017-05-19T08:58:50.293Z,15.46
2017-05-19T08:59:50.875Z,15.33
2017-05-19T09:00:51.470Z,15.27
2017-05-19T09:01:52.050Z,15.27
2017-05-19T09:02:52.631Z,15.17
2017-05-19T09:03:53.213Z,15.25
2017-05-19T09:04:53.793Z,15.19
2017-05-19T09:05:54.373Z,15.17
2017-05-19T09:06:54.953Z,15.18
2017-05-19T09:07:55.533Z,15.10
2017-05-19T09:08:56.126Z,15.25
2017-05-19T09:09:56.708Z,15.29
2017-05-19T09:10:57.287Z,15.29
2017-05-19T09:11:57.870Z,15.15
2017-05-19T09:12:58.448Z,15.09
2017-05-19T09:13:59.043Z,15.14
2017-05-19T09:14:59.625Z,15.11
2017-05-19T09:16:00.207Z,15.18
2017-05-19T09:17:00.785Z,15.00
2017-05-19T09:18:01.366Z,14.96
2017-05-19T09:19:01.946Z,15.04
2017-05-19T09:20:02.527Z,15.03
2017-05-19T09:21:03.108Z,15.07
2017-05-19T09:22:03.689Z,15.14
2017-05-19T09:23:04.270Z,15.28
2017-05-19T09:24:04.851Z,15.11
2017-05-19T09:25:05.432Z,15.17
2017-05-19T09:26:06.012Z,15.15
2017-05-19T09:27:06.594Z,15.09
2017-05-19T09:28:07.173Z,15.03
2017-05-19T09:29:07.753Z,15.00
2017-05-19T09:30:08.335Z,15.02
2017-05-19T09:31:08.915Z,15.03
2017-05-19T09:32:09.499Z,15.06
2017-05-19T09:33:10.079Z,15.04
2017-05-19T09:34:10.659Z,15.03
2017-05-19T09:35:11.241Z,14.99
2017-05-19T09:36:11.821Z,14.92
2017-05-19T09:37:12.413Z,15.00
2017-05-19T09:38:12.994Z,15.06
2017-05-19T09:39:13.574Z,15.04
2017-05-19T09:40:14.155Z,15.10
2017-05-19T09:41:14.737Z,15.04
2017-05-19T09:42:15.318Z,15.04
2017-05-19T09:43:15.898Z,14.84
2017-05-19T09:44:16.479Z,15.02
2017-05-19T09:45:17.060Z,14.94
2017-05-19T09:46:17.639Z,15.04
2017-05-19T09:47:18.219Z,15.02
2017-05-19T09:48:18.801Z,14.94
2017-05-19T09:49:19.382Z,15.03
2017-05-19T09:50:19.963Z,15.00
2017-05-19T09:51:20.546Z,15.04
2017-05-19T09:52:21.130Z,15.00
2017-05-19T09:53:21.705Z,14.85
2017-05-19T09:54:22.285Z,14.91
2017-05-19T09:55:22.870Z,15.02
2017-05-19T09:56:23.547Z,14.88
2017-05-19T09:57:24.139Z,14.68
2017-05-19T09:58:24.720Z,14.91
2017-05-19T09:59:25.370Z,14.84
2017-05-19T10:00:25.895Z,14.79
2017-05-19T10:01:26.474Z,14.81
2017-05-19T10:02:27.054Z,14.94
2017-05-19T10:03:27.636Z,14.99
2017-05-19T10:04:28.217Z,15.09
2017-05-19T10:05:28.797Z,15.04
2017-05-19T10:06:29.377Z,14.72
2017-05-19T10:07:29.959Z,14.92
2017-05-19T10:08:30.541Z,14.88
2017-05-19T10:09:31.121Z,14.91
2017-05-19T10:10:31.700Z,14.97
2017-05-19T10:11:32.283Z,15.04
2017-05-19T10:12:32.863Z,15.18
2017-05-19T10:13:33.443Z,15.11
2017-05-19T10:14:34.022Z,15.04
2017-05-19T10:15:34.602Z,15.06
2017-05-19T10:16:35.183Z,15.00
2017-05-19T10:17:35.764Z,14.97
2017-05-19T10:18:36.347Z,14.94
2017-05-19T10:19:36.927Z,15.02
2017-05-19T10:20:37.507Z,14.96
2017-05-19T10:21:38.088Z,15.10
2017-05-19T10:22:38.671Z,15.18
2017-05-19T10:23:39.251Z,15.22
2017-05-19T10:24:39.882Z,15.04
2017-05-19T10:25:40.412Z,15.04
2017-05-19T10:26:40.993Z,15.14
2017-05-19T10:27:41.574Z,15.18
2017-05-19T10:28:42.153Z,15.29
2017-05-19T10:29:42.734Z,15.18
2017-05-19T10:30:43.319Z,15.02
2017-05-19T10:31:43.895Z,15.19
2017-05-19T10:32:44.488Z,15.33
2017-05-19T10:33:45.070Z,15.27
2017-05-19T10:34:45.649Z,15.36
2017-05-19T10:35:46.230Z,15.35
2017-05-19T10:36:46.811Z,15.44
2017-05-19T10:37:47.390Z,15.62
2017-05-19T10:38:47.971Z,15.49
2017-05-19T10:39:48.552Z,15.35
2017-05-19T10:40:49.132Z,15.25
2017-05-19T10:41:49.712Z,15.39
2017-05-19T10:42:50.291Z,15.54
2017-05-19T10:43:50.880Z,15.76
2017-05-19T10:44:51.463Z,15.83
2017-05-19T10:45:52.044Z,15.58
2017-05-19T10:46:52.638Z,15.49
2017-05-19T10:47:53.218Z,15.61
2017-05-19T10:48:53.803Z,15.75
2017-05-19T10:49:54.384Z,15.49
2017-05-19T10:50:54.965Z,15.27
2017-05-19T10:51:55.547Z,15.43
2017-05-19T10:52:56.129Z,15.35
2017-05-19T10:53:56.707Z,15.39
2017-05-19T10:54:57.289Z,15.31
2017-05-19T10:55:57.882Z,15.33
2017-05-19T10:56:58.462Z,15.43
2017-05-19T10:57:59.046Z,15.27
2017-05-19T10:58:59.641Z,15.19
2017-05-19T11:00:00.221Z,15.11
2017-05-19T11:01:00.801Z,15.36
2017-05-19T11:02:01.383Z,15.90
2017-05-19T11:03:01.964Z,15.51
2017-05-19T11:04:02.545Z,15.39
2017-05-19T11:05:03.130Z,15.43
2017-05-19T11:06:03.707Z,15.51
2017-05-19T11:07:04.291Z,15.43
2017-05-19T11:08:04.871Z,15.40
2017-05-19T11:09:05.451Z,15.33
2017-05-19T11:10:06.035Z,15.15
2017-05-19T11:11:06.616Z,15.06
2017-05-19T11:12:07.196Z,15.15
2017-05-19T11:13:07.778Z,15.27
2017-05-19T11:14:08.358Z,15.27
2017-05-19T11:15:08.939Z,15.40
2017-05-19T11:16:09.520Z,15.42
2017-05-19T11:17:10.099Z,15.42
2017-05-19T11:18:10.680Z,15.39
2017-05-19T11:19:11.260Z,15.27
2017-05-19T11:20:11.853Z,15.24
2017-05-19T11:21:12.448Z,15.44
2017-05-19T11:22:13.030Z,15.70
2017-05-19T11:23:13.614Z,15.49
2017-05-19T11:24:14.196Z,15.40
2017-05-19T11:25:14.777Z,15.67
2017-05-19T11:26:15.361Z,15.70
2017-05-19T11:27:15.941Z,16.01
2017-05-19T11:28:16.535Z,16.29
2017-05-19T11:29:17.129Z,16.20
2017-05-19T11:30:17.710Z,15.76
2017-05-19T11:31:18.290Z,15.58
2017-05-19T11:32:18.870Z,15.52
2017-05-19T11:33:19.451Z,15.40
2017-05-19T11:34:20.032Z,15.64
2017-05-19T11:35:20.615Z,15.72
2017-05-19T11:36:21.197Z,15.62
2017-05-19T11:37:21.777Z,15.40
2017-05-19T11:38:22.360Z,15.42
2017-05-19T11:39:22.942Z,15.57
2017-05-19T11:40:23.525Z,15.44
2017-05-19T11:41:24.107Z,15.49
2017-05-19T11:42:24.722Z,15.37
2017-05-19T11:43:25.303Z,15.33
2017-05-19T11:44:25.883Z,15.35
2017-05-19T11:45:26.478Z,15.39
2017-05-19T11:46:27.072Z,15.24
2017-05-19T11:47:27.666Z,15.27
2017-05-19T11:48:28.247Z,15.28
2017-05-19T11:49:28.827Z,15.54
2017-05-19T11:50:29.408Z,15.40
2017-05-19T11:51:29.993Z,15.42
2017-05-19T11:52:30.570Z,15.58
2017-05-19T11:53:31.152Z,15.62
2017-05-19T11:54:31.732Z,15.36
2017-05-19T11:55:32.328Z,15.40
2017-05-19T11:56:32.909Z,15.46
2017-05-19T11:57:33.490Z,15.49
2017-05-19T11:58:34.082Z,15.36
2017-05-19T11:59:34.664Z,15.62
2017-05-19T12:00:35.248Z,15.39
2017-05-19T12:01:35.827Z,15.35
2017-05-19T12:02:36.424Z,15.36
2017-05-19T12:03:37.004Z,15.29
2017-05-19T12:04:37.585Z,15.18
2017-05-19T12:05:38.166Z,15.15
2017-05-19T12:06:38.804Z,15.14
2017-05-19T12:07:39.385Z,15.14
2017-05-19T12:08:39.968Z,15.15
2017-05-19T12:09:40.548Z,15.36
2017-05-19T12:10:41.129Z,15.31
2017-05-19T12:11:41.711Z,15.39
2017-05-19T12:12:42.290Z,15.29
2017-05-19T12:13:42.872Z,15.31
2017-05-19T12:14:43.452Z,15.27
2017-05-19T12:15:44.032Z,15.43
2017-05-19T12:16:44.616Z,15.29
2017-05-19T12:17:45.195Z,15.10
2017-05-19T12:18:45.776Z,15.27
2017-05-19T12:19:46.370Z,15.35
2017-05-19T12:20:46.952Z,15.28
2017-05-19T12:21:47.536Z,15.35
2017-05-19T12:22:48.114Z,15.17
2017-05-19T12:23:48.693Z,15.25
2017-05-19T12:24:49.322Z,15.44
2017-05-19T12:25:49.902Z,15.37
2017-05-19T12:26:50.511Z,15.39
2017-05-19T12:27:51.096Z,15.09
2017-05-19T12:28:51.674Z,15.29
2017-05-19T12:29:52.255Z,15.35
2017-05-19T12:30:52.840Z,15.40
2017-05-19T12:31:53.418Z,15.21
2017-05-19T12:32:53.998Z,15.29
2017-05-19T12:33:54.581Z,15.18
2017-05-19T12:34:55.160Z,14.91
2017-05-19T12:35:55.741Z,15.02
2017-05-19T12:36:56.334Z,14.94
2017-05-19T12:37:56.929Z,14.94
2017-05-19T12:38:57.508Z,14.78
2017-05-19T12:39:58.087Z,14.89
2017-05-19T12:40:58.667Z,14.94
2017-05-19T12:41:59.247Z,15.00
2017-05-19T12:42:59.827Z,14.99
2017-05-19T12:44:00.408Z,14.81
2017-05-19T12:45:00.988Z,14.82
2017-05-19T12:46:01.572Z,14.79
2017-05-19T12:47:02.151Z,14.81
2017-05-19T12:48:02.730Z,14.78
2017-05-19T12:49:03.311Z,14.78
2017-05-19T12:50:03.892Z,14.79
2017-05-19T12:51:04.474Z,14.77
2017-05-19T12:52:05.055Z,14.79
2017-05-19T12:53:05.635Z,14.91
2017-05-19T12:54:06.216Z,14.89
2017-05-19T12:55:06.795Z,14.84
2017-05-19T12:56:07.375Z,15.02
2017-05-19T12:57:07.955Z,15.03
2017-05-19T12:58:08.536Z,14.79
2017-05-19T12:59:09.118Z,14.72
2017-05-19T13:00:09.698Z,14.82